sensor_id;sensor_type;location;lat;lon;timestamp;temperature;humidity
21193;DHT22;10754;51.106;7.164;2022-12-31T00:01:29;15.40;1.00
21193;DHT22;10754;51.106;7.164;2022-12-31T00:03:55;15.50;1.00
21193;DHT22;10754;51.106;7.164;2022-12-31T00:06:26;15.50;1.00
21193;DHT22;10754;51.106;7.164;2022-12-31T00:08:53;15.50;1.00
21193;DHT22;10754;51.106;7.164;2022-12-31T00:11:19;15.50;1.00
21193;DHT22;10754;51.106;7.164;2022-12-31T00:13:45;15.50;1.00
21193;DHT22;10754;51.106;7.164;2022-12-31T00:16:17;15.60;1.00
21193;DHT22;10754;51.106;7.164;2022-12-31T00:18:47;15.70;1.00
21193;DHT22;10754;51.106;7.164;2022-12-31T00:21:14;15.70;1.00
21193;DHT22;10754;51.106;7.164;2022-12-31T00:23:39;15.70;1.00
21193;DHT22;10754;51.106;7.164;2022-12-31T00:26:08;15.60;1.00
21193;DHT22;10754;51.106;7.164;2022-12-31T00:28:35;15.70;1.00
21193;DHT22;10754;51.106;7.164;2022-12-31T00:33:33;15.70;1.00
21193;DHT22;10754;51.106;7.164;2022-12-31T00:38:32;15.70;1.00
21193;DHT22;10754;51.106;7.164;2022-12-31T00:40:58;15.80;1.00
21193;DHT22;10754;51.106;7.164;2022-12-31T00:43:23;15.70;1.00
21193;DHT22;10754;51.106;7.164;2022-12-31T00:45:49;15.70;1.00
21193;DHT22;10754;51.106;7.164;2022-12-31T00:48:14;15.70;1.00
21193;DHT22;10754;51.106;7.164;2022-12-31T00:50:40;15.90;1.00
21193;DHT22;10754;51.106;7.164;2022-12-31T00:53:05;15.90;1.00
21193;DHT22;10754;51.106;7.164;2022-12-31T00:55:31;16.00;1.00
21193;DHT22;10754;51.106;7.164;2022-12-31T00:57:56;16.30;1.00
21193;DHT22;10754;51.106;7.164;2022-12-31T01:00:22;16.20;1.00
21193;DHT22;10754;51.106;7.164;2022-12-31T01:02:48;16.20;1.00
21193;DHT22;10754;51.106;7.164;2022-12-31T01:05:14;16.00;1.00
21193;DHT22;10754;51.106;7.164;2022-12-31T01:07:39;16.00;1.00
21193;DHT22;10754;51.106;7.164;2022-12-31T01:10:05;16.00;1.00
21193;DHT22;10754;51.106;7.164;2022-12-31T01:12:31;16.10;1.00
21193;DHT22;10754;51.106;7.164;2022-12-31T01:14:56;16.30;1.00
21193;DHT22;10754;51.106;7.164;2022-12-31T01:17:22;16.10;1.00
21193;DHT22;10754;51.106;7.164;2022-12-31T01:19:47;16.20;1.00
21193;DHT22;10754;51.106;7.164;2022-12-31T01:22:13;16.20;1.00
21193;DHT22;10754;51.106;7.164;2022-12-31T01:24:38;16.30;1.00
21193;DHT22;10754;51.106;7.164;2022-12-31T01:27:04;16.20;1.00
21193;DHT22;10754;51.106;7.164;2022-12-31T01:29:29;16.40;1.00
21193;DHT22;10754;51.106;7.164;2022-12-31T01:31:55;16.40;1.00
21193;DHT22;10754;51.106;7.164;2022-12-31T01:34:20;16.40;1.00
21193;DHT22;10754;51.106;7.164;2022-12-31T01:36:46;16.50;1.00
21193;DHT22;10754;51.106;7.164;2022-12-31T01:39:11;16.50;1.00
21193;DHT22;10754;51.106;7.164;2022-12-31T01:41:40;16.40;1.00
21193;DHT22;10754;51.106;7.164;2022-12-31T01:49:12;16.70;1.00
21193;DHT22;10754;51.106;7.164;2022-12-31T01:51:41;16.50;1.00
21193;DHT22;10754;51.106;7.164;2022-12-31T01:54:09;16.50;1.00
21193;DHT22;10754;51.106;7.164;2022-12-31T01:56:37;16.80;1.00
21193;DHT22;10754;51.106;7.164;2022-12-31T01:59:07;16.80;1.00
21193;DHT22;10754;51.106;7.164;2022-12-31T02:01:36;16.80;1.00
21193;DHT22;10754;51.106;7.164;2022-12-31T02:04:10;16.70;1.00
21193;DHT22;10754;51.106;7.164;2022-12-31T02:06:49;16.90;1.00
21193;DHT22;10754;51.106;7.164;2022-12-31T02:09:16;16.90;1.00
21193;DHT22;10754;51.106;7.164;2022-12-31T02:11:41;17.00;1.00
21193;DHT22;10754;51.106;7.164;2022-12-31T02:14:12;16.90;1.00
21193;DHT22;10754;51.106;7.164;2022-12-31T02:16:49;16.90;1.00
21193;DHT22;10754;51.106;7.164;2022-12-31T02:19:23;16.90;1.00
21193;DHT22;10754;51.106;7.164;2022-12-31T02:22:30;17.00;1.00
21193;DHT22;10754;51.106;7.164;2022-12-31T02:28:14;17.10;1.00
21193;DHT22;10754;51.106;7.164;2022-12-31T02:30:47;17.00;1.00
21193;DHT22;10754;51.106;7.164;2022-12-31T02:33:22;17.00;1.00
21193;DHT22;10754;51.106;7.164;2022-12-31T02:36:01;17.00;1.00
21193;DHT22;10754;51.106;7.164;2022-12-31T02:38:31;17.10;1.00
21193;DHT22;10754;51.106;7.164;2022-12-31T02:40:58;17.10;1.00
21193;DHT22;10754;51.106;7.164;2022-12-31T02:43:24;17.00;1.00
21193;DHT22;10754;51.106;7.164;2022-12-31T02:48:56;17.10;1.00
21193;DHT22;10754;51.106;7.164;2022-12-31T02:54:11;17.10;1.00
21193;DHT22;10754;51.106;7.164;2022-12-31T02:59:57;16.80;1.00
21193;DHT22;10754;51.106;7.164;2022-12-31T03:02:45;16.80;1.00
21193;DHT22;10754;51.106;7.164;2022-12-31T03:05:13;16.80;1.00
21193;DHT22;10754;51.106;7.164;2022-12-31T03:07:41;16.80;1.00
21193;DHT22;10754;51.106;7.164;2022-12-31T03:10:07;16.80;1.00
21193;DHT22;10754;51.106;7.164;2022-12-31T03:12:34;17.00;1.00
21193;DHT22;10754;51.106;7.164;2022-12-31T03:15:15;17.20;1.00
21193;DHT22;10754;51.106;7.164;2022-12-31T03:23:16;17.20;1.00
21193;DHT22;10754;51.106;7.164;2022-12-31T03:25:43;17.10;1.00
21193;DHT22;10754;51.106;7.164;2022-12-31T03:28:15;17.20;1.00
21193;DHT22;10754;51.106;7.164;2022-12-31T03:30:44;17.40;1.00
21193;DHT22;10754;51.106;7.164;2022-12-31T03:33:10;17.80;1.00
21193;DHT22;10754;51.106;7.164;2022-12-31T03:35:37;17.30;1.00
21193;DHT22;10754;51.106;7.164;2022-12-31T03:38:03;17.20;1.00
21193;DHT22;10754;51.106;7.164;2022-12-31T03:40:30;17.60;1.00
21193;DHT22;10754;51.106;7.164;2022-12-31T03:42:56;17.60;1.00
21193;DHT22;10754;51.106;7.164;2022-12-31T03:45:22;17.60;1.00
21193;DHT22;10754;51.106;7.164;2022-12-31T03:47:47;17.60;1.00
21193;DHT22;10754;51.106;7.164;2022-12-31T03:50:14;17.60;1.00
21193;DHT22;10754;51.106;7.164;2022-12-31T03:52:40;17.80;1.00
21193;DHT22;10754;51.106;7.164;2022-12-31T03:55:07;17.40;1.00
21193;DHT22;10754;51.106;7.164;2022-12-31T03:57:33;17.60;1.00
21193;DHT22;10754;51.106;7.164;2022-12-31T03:59:58;17.70;1.00
21193;DHT22;10754;51.106;7.164;2022-12-31T04:02:24;17.60;1.00
21193;DHT22;10754;51.106;7.164;2022-12-31T04:04:50;17.90;1.00
21193;DHT22;10754;51.106;7.164;2022-12-31T04:07:15;17.80;1.00
21193;DHT22;10754;51.106;7.164;2022-12-31T04:09:41;17.90;1.00
21193;DHT22;10754;51.106;7.164;2022-12-31T04:12:07;17.80;1.00
21193;DHT22;10754;51.106;7.164;2022-12-31T04:14:32;17.80;1.00
21193;DHT22;10754;51.106;7.164;2022-12-31T04:16:58;17.80;1.00
21193;DHT22;10754;51.106;7.164;2022-12-31T04:19:23;17.90;1.00
21193;DHT22;10754;51.106;7.164;2022-12-31T04:21:49;18.00;1.00
21193;DHT22;10754;51.106;7.164;2022-12-31T04:24:14;17.90;1.00
21193;DHT22;10754;51.106;7.164;2022-12-31T04:26:40;18.00;1.00
21193;DHT22;10754;51.106;7.164;2022-12-31T04:29:06;18.20;1.00
21193;DHT22;10754;51.106;7.164;2022-12-31T04:31:32;17.90;1.00
21193;DHT22;10754;51.106;7.164;2022-12-31T04:33:57;17.80;1.00
21193;DHT22;10754;51.106;7.164;2022-12-31T04:36:23;17.60;1.00
21193;DHT22;10754;51.106;7.164;2022-12-31T04:38:48;17.90;1.00
21193;DHT22;10754;51.106;7.164;2022-12-31T04:41:14;18.00;1.00
21193;DHT22;10754;51.106;7.164;2022-12-31T04:43:51;18.10;1.00
21193;DHT22;10754;51.106;7.164;2022-12-31T04:46:19;18.20;1.00
21193;DHT22;10754;51.106;7.164;2022-12-31T04:48:44;17.70;1.00
21193;DHT22;10754;51.106;7.164;2022-12-31T04:51:10;17.60;1.00
21193;DHT22;10754;51.106;7.164;2022-12-31T04:53:37;17.70;1.00
21193;DHT22;10754;51.106;7.164;2022-12-31T04:56:03;17.70;1.00
21193;DHT22;10754;51.106;7.164;2022-12-31T04:58:29;17.50;1.00
21193;DHT22;10754;51.106;7.164;2022-12-31T05:00:54;17.70;1.00
21193;DHT22;10754;51.106;7.164;2022-12-31T05:03:22;17.80;1.00
21193;DHT22;10754;51.106;7.164;2022-12-31T05:05:48;17.90;1.00
21193;DHT22;10754;51.106;7.164;2022-12-31T05:08:15;17.70;1.00
21193;DHT22;10754;51.106;7.164;2022-12-31T05:10:43;17.70;1.00
21193;DHT22;10754;51.106;7.164;2022-12-31T05:13:08;17.70;1.00
21193;DHT22;10754;51.106;7.164;2022-12-31T05:15:34;17.50;1.00
21193;DHT22;10754;51.106;7.164;2022-12-31T05:18:00;17.70;1.00
21193;DHT22;10754;51.106;7.164;2022-12-31T05:20:25;18.50;1.00
21193;DHT22;10754;51.106;7.164;2022-12-31T05:22:51;18.50;1.00
21193;DHT22;10754;51.106;7.164;2022-12-31T05:25:16;18.60;1.00
21193;DHT22;10754;51.106;7.164;2022-12-31T05:27:42;18.20;1.00
21193;DHT22;10754;51.106;7.164;2022-12-31T05:30:08;18.20;1.00
21193;DHT22;10754;51.106;7.164;2022-12-31T05:32:34;18.40;1.00
21193;DHT22;10754;51.106;7.164;2022-12-31T05:34:59;18.40;1.00
21193;DHT22;10754;51.106;7.164;2022-12-31T05:37:27;18.30;1.00
21193;DHT22;10754;51.106;7.164;2022-12-31T05:39:52;18.10;1.00
21193;DHT22;10754;51.106;7.164;2022-12-31T05:42:18;18.30;1.00
21193;DHT22;10754;51.106;7.164;2022-12-31T05:44:43;18.20;1.00
21193;DHT22;10754;51.106;7.164;2022-12-31T05:47:09;18.40;1.00
21193;DHT22;10754;51.106;7.164;2022-12-31T05:49:35;18.60;1.00
21193;DHT22;10754;51.106;7.164;2022-12-31T05:52:00;18.70;1.00
21193;DHT22;10754;51.106;7.164;2022-12-31T05:54:26;18.90;1.00
21193;DHT22;10754;51.106;7.164;2022-12-31T05:56:51;18.60;1.00
21193;DHT22;10754;51.106;7.164;2022-12-31T05:59:17;18.30;1.00
21193;DHT22;10754;51.106;7.164;2022-12-31T06:01:42;18.50;1.00
21193;DHT22;10754;51.106;7.164;2022-12-31T06:04:08;18.50;1.00
21193;DHT22;10754;51.106;7.164;2022-12-31T06:06:33;18.50;1.00
21193;DHT22;10754;51.106;7.164;2022-12-31T06:08:59;18.80;1.00
21193;DHT22;10754;51.106;7.164;2022-12-31T06:11:24;18.70;1.00
21193;DHT22;10754;51.106;7.164;2022-12-31T06:13:50;18.80;1.00
21193;DHT22;10754;51.106;7.164;2022-12-31T06:16:15;18.60;1.00
21193;DHT22;10754;51.106;7.164;2022-12-31T06:18:41;18.90;1.00
21193;DHT22;10754;51.106;7.164;2022-12-31T06:21:06;18.70;1.00
21193;DHT22;10754;51.106;7.164;2022-12-31T06:23:32;18.80;1.00
21193;DHT22;10754;51.106;7.164;2022-12-31T06:26:04;19.10;1.00
21193;DHT22;10754;51.106;7.164;2022-12-31T06:28:29;19.20;1.00
21193;DHT22;10754;51.106;7.164;2022-12-31T06:31:03;18.80;1.00
21193;DHT22;10754;51.106;7.164;2022-12-31T06:33:29;18.90;1.00
21193;DHT22;10754;51.106;7.164;2022-12-31T06:35:56;18.80;1.00
21193;DHT22;10754;51.106;7.164;2022-12-31T06:38:23;19.00;1.00
21193;DHT22;10754;51.106;7.164;2022-12-31T06:40:49;18.90;1.00
21193;DHT22;10754;51.106;7.164;2022-12-31T06:43:15;19.20;1.00
21193;DHT22;10754;51.106;7.164;2022-12-31T06:45:40;18.70;1.00
21193;DHT22;10754;51.106;7.164;2022-12-31T06:48:06;18.70;1.00
21193;DHT22;10754;51.106;7.164;2022-12-31T06:50:31;18.60;1.00
21193;DHT22;10754;51.106;7.164;2022-12-31T06:52:57;18.70;1.00
21193;DHT22;10754;51.106;7.164;2022-12-31T06:55:23;18.70;1.00
21193;DHT22;10754;51.106;7.164;2022-12-31T06:57:48;18.70;1.00
21193;DHT22;10754;51.106;7.164;2022-12-31T07:00:14;19.00;1.00
21193;DHT22;10754;51.106;7.164;2022-12-31T07:08:46;18.90;1.00
21193;DHT22;10754;51.106;7.164;2022-12-31T07:11:21;18.80;1.00
21193;DHT22;10754;51.106;7.164;2022-12-31T07:14:05;18.80;1.00
21193;DHT22;10754;51.106;7.164;2022-12-31T07:19:27;18.70;1.00
21193;DHT22;10754;51.106;7.164;2022-12-31T07:21:58;18.60;1.00
21193;DHT22;10754;51.106;7.164;2022-12-31T07:24:25;18.80;1.00
21193;DHT22;10754;51.106;7.164;2022-12-31T07:30:11;18.90;1.00
21193;DHT22;10754;51.106;7.164;2022-12-31T07:32:41;18.60;1.00
21193;DHT22;10754;51.106;7.164;2022-12-31T07:41:13;19.10;1.00
21193;DHT22;10754;51.106;7.164;2022-12-31T07:43:44;19.20;1.00
21193;DHT22;10754;51.106;7.164;2022-12-31T07:46:21;18.90;1.00
21193;DHT22;10754;51.106;7.164;2022-12-31T07:48:50;18.60;1.00
21193;DHT22;10754;51.106;7.164;2022-12-31T07:51:16;18.80;1.00
21193;DHT22;10754;51.106;7.164;2022-12-31T07:53:42;18.80;1.00
21193;DHT22;10754;51.106;7.164;2022-12-31T07:56:08;19.10;1.00
21193;DHT22;10754;51.106;7.164;2022-12-31T08:01:11;19.00;1.00
21193;DHT22;10754;51.106;7.164;2022-12-31T08:04:00;19.30;1.00
21193;DHT22;10754;51.106;7.164;2022-12-31T08:09:27;19.50;1.00
21193;DHT22;10754;51.106;7.164;2022-12-31T08:11:59;19.10;1.00
21193;DHT22;10754;51.106;7.164;2022-12-31T08:14:27;19.20;1.00
21193;DHT22;10754;51.106;7.164;2022-12-31T08:16:53;19.50;1.00
21193;DHT22;10754;51.106;7.164;2022-12-31T08:19:31;19.50;1.00
21193;DHT22;10754;51.106;7.164;2022-12-31T08:22:04;19.50;1.00
21193;DHT22;10754;51.106;7.164;2022-12-31T08:24:53;19.40;1.00
21193;DHT22;10754;51.106;7.164;2022-12-31T08:27:54;19.20;1.00
21193;DHT22;10754;51.106;7.164;2022-12-31T08:30:28;19.20;1.00
21193;DHT22;10754;51.106;7.164;2022-12-31T08:33:18;19.60;1.00
21193;DHT22;10754;51.106;7.164;2022-12-31T08:36:24;19.50;1.00
21193;DHT22;10754;51.106;7.164;2022-12-31T08:38:53;19.20;1.00
21193;DHT22;10754;51.106;7.164;2022-12-31T08:41:38;19.10;1.00
21193;DHT22;10754;51.106;7.164;2022-12-31T08:44:21;19.30;1.00
21193;DHT22;10754;51.106;7.164;2022-12-31T08:47:08;19.10;1.00
21193;DHT22;10754;51.106;7.164;2022-12-31T08:49:36;18.90;1.00
21193;DHT22;10754;51.106;7.164;2022-12-31T08:52:03;19.20;1.00
21193;DHT22;10754;51.106;7.164;2022-12-31T08:54:29;19.00;1.00
21193;DHT22;10754;51.106;7.164;2022-12-31T09:00:11;19.50;1.00
21193;DHT22;10754;51.106;7.164;2022-12-31T09:05:43;19.00;1.00
21193;DHT22;10754;51.106;7.164;2022-12-31T09:13:56;19.40;1.00
21193;DHT22;10754;51.106;7.164;2022-12-31T09:16:31;19.60;1.00
21193;DHT22;10754;51.106;7.164;2022-12-31T09:18:57;19.40;1.00
21193;DHT22;10754;51.106;7.164;2022-12-31T09:21:23;19.10;1.00
21193;DHT22;10754;51.106;7.164;2022-12-31T09:23:49;19.40;1.00
21193;DHT22;10754;51.106;7.164;2022-12-31T09:26:30;19.40;1.00
21193;DHT22;10754;51.106;7.164;2022-12-31T09:37:35;19.20;1.00
21193;DHT22;10754;51.106;7.164;2022-12-31T09:43:37;19.50;1.00
21193;DHT22;10754;51.106;7.164;2022-12-31T09:52:12;19.50;1.00
21193;DHT22;10754;51.106;7.164;2022-12-31T09:58:11;19.60;1.00
21193;DHT22;10754;51.106;7.164;2022-12-31T10:00:49;19.50;1.00
21193;DHT22;10754;51.106;7.164;2022-12-31T10:06:20;19.20;1.00
21193;DHT22;10754;51.106;7.164;2022-12-31T10:17:45;19.40;1.00
21193;DHT22;10754;51.106;7.164;2022-12-31T10:22:58;20.10;1.00
21193;DHT22;10754;51.106;7.164;2022-12-31T10:31:24;20.20;1.00
21193;DHT22;10754;51.106;7.164;2022-12-31T10:34:25;19.60;1.00
21193;DHT22;10754;51.106;7.164;2022-12-31T10:37:02;19.50;1.00
21193;DHT22;10754;51.106;7.164;2022-12-31T10:47:59;19.40;1.00
21193;DHT22;10754;51.106;7.164;2022-12-31T10:50:56;19.90;1.00
21193;DHT22;10754;51.106;7.164;2022-12-31T11:04:45;19.90;1.00
21193;DHT22;10754;51.106;7.164;2022-12-31T11:16:08;19.90;1.00
21193;DHT22;10754;51.106;7.164;2022-12-31T11:18:40;19.80;1.00
21193;DHT22;10754;51.106;7.164;2022-12-31T11:27:03;20.20;1.00
21193;DHT22;10754;51.106;7.164;2022-12-31T11:36:04;19.90;1.00
21193;DHT22;10754;51.106;7.164;2022-12-31T11:38:23;19.90;1.00
21193;DHT22;10754;51.106;7.164;2022-12-31T11:43:36;20.10;1.00
21193;DHT22;10754;51.106;7.164;2022-12-31T11:49:02;20.30;1.00
21193;DHT22;10754;51.106;7.164;2022-12-31T11:52:08;20.50;1.00
21193;DHT22;10754;51.106;7.164;2022-12-31T11:57:31;20.00;1.00
21193;DHT22;10754;51.106;7.164;2022-12-31T12:03:03;20.00;1.00
21193;DHT22;10754;51.106;7.164;2022-12-31T12:05:30;20.10;1.00
21193;DHT22;10754;51.106;7.164;2022-12-31T12:07:56;20.00;1.00
21193;DHT22;10754;51.106;7.164;2022-12-31T12:12:54;19.90;1.00
21193;DHT22;10754;51.106;7.164;2022-12-31T12:15:24;20.00;1.00
21193;DHT22;10754;51.106;7.164;2022-12-31T12:18:04;20.30;1.00
21193;DHT22;10754;51.106;7.164;2022-12-31T12:20:35;20.50;1.00
21193;DHT22;10754;51.106;7.164;2022-12-31T12:23:15;20.20;1.00
21193;DHT22;10754;51.106;7.164;2022-12-31T12:25:43;20.30;1.00
21193;DHT22;10754;51.106;7.164;2022-12-31T12:30:43;20.30;1.00
21193;DHT22;10754;51.106;7.164;2022-12-31T12:33:18;20.30;1.00
21193;DHT22;10754;51.106;7.164;2022-12-31T12:35:44;20.40;1.00
21193;DHT22;10754;51.106;7.164;2022-12-31T12:38:20;20.00;1.00
21193;DHT22;10754;51.106;7.164;2022-12-31T12:40:58;20.20;1.00
21193;DHT22;10754;51.106;7.164;2022-12-31T12:43:33;20.30;1.00
21193;DHT22;10754;51.106;7.164;2022-12-31T12:46:01;20.10;1.00
21193;DHT22;10754;51.106;7.164;2022-12-31T12:48:36;20.20;1.00
21193;DHT22;10754;51.106;7.164;2022-12-31T12:54:07;20.10;1.00
21193;DHT22;10754;51.106;7.164;2022-12-31T12:56:57;19.80;1.00
21193;DHT22;10754;51.106;7.164;2022-12-31T13:05:02;19.50;1.00
21193;DHT22;10754;51.106;7.164;2022-12-31T13:13:35;19.60;1.00
21193;DHT22;10754;51.106;7.164;2022-12-31T13:18:54;19.70;1.00
21193;DHT22;10754;51.106;7.164;2022-12-31T13:21:44;19.80;1.00
21193;DHT22;10754;51.106;7.164;2022-12-31T13:24:28;19.30;1.00
21193;DHT22;10754;51.106;7.164;2022-12-31T13:27:19;19.20;1.00
21193;DHT22;10754;51.106;7.164;2022-12-31T13:29:47;19.20;1.00
21193;DHT22;10754;51.106;7.164;2022-12-31T13:32:17;19.20;1.00
21193;DHT22;10754;51.106;7.164;2022-12-31T13:34:45;19.00;1.00
21193;DHT22;10754;51.106;7.164;2022-12-31T13:39:48;19.40;1.00
21193;DHT22;10754;51.106;7.164;2022-12-31T13:42:24;19.10;1.00
21193;DHT22;10754;51.106;7.164;2022-12-31T13:44:58;19.30;1.00
21193;DHT22;10754;51.106;7.164;2022-12-31T13:47:47;19.10;1.00
21193;DHT22;10754;51.106;7.164;2022-12-31T13:50:29;19.10;1.00
21193;DHT22;10754;51.106;7.164;2022-12-31T13:53:14;19.40;1.00
21193;DHT22;10754;51.106;7.164;2022-12-31T13:55:50;18.90;1.00
21193;DHT22;10754;51.106;7.164;2022-12-31T13:58:30;18.30;1.00
21193;DHT22;10754;51.106;7.164;2022-12-31T14:01:10;18.50;1.00
21193;DHT22;10754;51.106;7.164;2022-12-31T14:04:13;18.90;1.00
21193;DHT22;10754;51.106;7.164;2022-12-31T14:06:45;18.50;1.00
21193;DHT22;10754;51.106;7.164;2022-12-31T14:09:20;18.10;1.00
21193;DHT22;10754;51.106;7.164;2022-12-31T14:14:39;18.70;1.00
21193;DHT22;10754;51.106;7.164;2022-12-31T14:21:05;18.80;1.00
21193;DHT22;10754;51.106;7.164;2022-12-31T14:23:24;18.80;1.00
21193;DHT22;10754;51.106;7.164;2022-12-31T14:25:58;18.50;1.00
21193;DHT22;10754;51.106;7.164;2022-12-31T14:28:31;18.60;1.00
21193;DHT22;10754;51.106;7.164;2022-12-31T14:32:13;18.30;1.00
21193;DHT22;10754;51.106;7.164;2022-12-31T14:37:24;18.30;1.00
21193;DHT22;10754;51.106;7.164;2022-12-31T14:40:17;18.20;1.00
21193;DHT22;10754;51.106;7.164;2022-12-31T14:45:54;18.20;1.00
21193;DHT22;10754;51.106;7.164;2022-12-31T14:51:05;18.10;1.00
21193;DHT22;10754;51.106;7.164;2022-12-31T14:53:31;18.20;1.00
21193;DHT22;10754;51.106;7.164;2022-12-31T14:56:05;18.10;1.00
21193;DHT22;10754;51.106;7.164;2022-12-31T14:58:39;18.20;1.00
21193;DHT22;10754;51.106;7.164;2022-12-31T15:01:18;18.10;1.00
21193;DHT22;10754;51.106;7.164;2022-12-31T15:03:47;18.40;1.00
21193;DHT22;10754;51.106;7.164;2022-12-31T15:06:33;18.40;1.00
21193;DHT22;10754;51.106;7.164;2022-12-31T15:17:33;18.80;1.00
21193;DHT22;10754;51.106;7.164;2022-12-31T15:23:01;18.90;1.00
21193;DHT22;10754;51.106;7.164;2022-12-31T15:28:01;18.70;1.00
21193;DHT22;10754;51.106;7.164;2022-12-31T15:32:54;18.50;1.00
21193;DHT22;10754;51.106;7.164;2022-12-31T15:41:26;18.70;1.00
21193;DHT22;10754;51.106;7.164;2022-12-31T15:44:14;18.80;1.00
21193;DHT22;10754;51.106;7.164;2022-12-31T15:46:43;18.90;1.00
21193;DHT22;10754;51.106;7.164;2022-12-31T15:49:20;18.80;1.00
21193;DHT22;10754;51.106;7.164;2022-12-31T15:52:00;18.80;1.00
21193;DHT22;10754;51.106;7.164;2022-12-31T15:54:40;18.70;1.00
21193;DHT22;10754;51.106;7.164;2022-12-31T15:57:18;18.60;1.00
21193;DHT22;10754;51.106;7.164;2022-12-31T15:59:45;18.80;1.00
21193;DHT22;10754;51.106;7.164;2022-12-31T16:02:22;18.60;1.00
21193;DHT22;10754;51.106;7.164;2022-12-31T16:04:49;18.70;1.00
21193;DHT22;10754;51.106;7.164;2022-12-31T16:07:16;18.70;1.00
21193;DHT22;10754;51.106;7.164;2022-12-31T16:09:42;18.70;1.00
21193;DHT22;10754;51.106;7.164;2022-12-31T16:12:14;18.70;1.00
21193;DHT22;10754;51.106;7.164;2022-12-31T16:14:47;18.50;1.00
21193;DHT22;10754;51.106;7.164;2022-12-31T16:17:32;18.50;1.00
21193;DHT22;10754;51.106;7.164;2022-12-31T16:19:59;18.60;1.00
21193;DHT22;10754;51.106;7.164;2022-12-31T16:22:28;18.60;1.00
21193;DHT22;10754;51.106;7.164;2022-12-31T16:24:55;18.80;1.00
21193;DHT22;10754;51.106;7.164;2022-12-31T16:27:21;18.80;1.00
21193;DHT22;10754;51.106;7.164;2022-12-31T16:29:56;18.80;1.00
21193;DHT22;10754;51.106;7.164;2022-12-31T16:32:22;18.60;1.00
21193;DHT22;10754;51.106;7.164;2022-12-31T16:34:47;18.50;1.00
21193;DHT22;10754;51.106;7.164;2022-12-31T16:37:15;18.40;1.00
21193;DHT22;10754;51.106;7.164;2022-12-31T16:42:26;18.50;1.00
21193;DHT22;10754;51.106;7.164;2022-12-31T16:44:53;18.40;1.00
21193;DHT22;10754;51.106;7.164;2022-12-31T16:47:28;18.50;1.00
21193;DHT22;10754;51.106;7.164;2022-12-31T16:50:04;18.80;1.00
21193;DHT22;10754;51.106;7.164;2022-12-31T16:54:58;18.40;1.00
21193;DHT22;10754;51.106;7.164;2022-12-31T16:57:26;18.30;1.00
21193;DHT22;10754;51.106;7.164;2022-12-31T16:59:56;18.60;1.00
21193;DHT22;10754;51.106;7.164;2022-12-31T17:02:32;18.50;1.00
21193;DHT22;10754;51.106;7.164;2022-12-31T17:05:00;18.40;1.00
21193;DHT22;10754;51.106;7.164;2022-12-31T17:07:31;18.30;1.00
21193;DHT22;10754;51.106;7.164;2022-12-31T17:10:24;18.40;1.00
21193;DHT22;10754;51.106;7.164;2022-12-31T17:12:56;18.60;1.00
21193;DHT22;10754;51.106;7.164;2022-12-31T17:15:27;18.50;1.00
21193;DHT22;10754;51.106;7.164;2022-12-31T17:18:00;18.50;1.00
21193;DHT22;10754;51.106;7.164;2022-12-31T17:20:28;18.50;1.00
21193;DHT22;10754;51.106;7.164;2022-12-31T17:23:04;18.40;1.00
21193;DHT22;10754;51.106;7.164;2022-12-31T17:25:33;18.40;1.00
21193;DHT22;10754;51.106;7.164;2022-12-31T17:28:12;18.40;1.00
21193;DHT22;10754;51.106;7.164;2022-12-31T17:30:43;18.20;1.00
21193;DHT22;10754;51.106;7.164;2022-12-31T17:35:47;18.40;1.00
21193;DHT22;10754;51.106;7.164;2022-12-31T17:40:42;17.90;1.00
21193;DHT22;10754;51.106;7.164;2022-12-31T17:43:10;18.10;1.00
21193;DHT22;10754;51.106;7.164;2022-12-31T17:45:36;18.20;1.00
21193;DHT22;10754;51.106;7.164;2022-12-31T17:48:03;18.00;1.00
21193;DHT22;10754;51.106;7.164;2022-12-31T17:50:28;18.10;1.00
21193;DHT22;10754;51.106;7.164;2022-12-31T17:53:11;18.00;1.00
21193;DHT22;10754;51.106;7.164;2022-12-31T17:55:36;17.90;1.00
21193;DHT22;10754;51.106;7.164;2022-12-31T17:58:04;18.10;1.00
21193;DHT22;10754;51.106;7.164;2022-12-31T18:00:31;18.00;1.00
21193;DHT22;10754;51.106;7.164;2022-12-31T18:02:59;18.00;1.00
21193;DHT22;10754;51.106;7.164;2022-12-31T18:05:25;18.30;1.00
21193;DHT22;10754;51.106;7.164;2022-12-31T18:07:51;18.10;1.00
21193;DHT22;10754;51.106;7.164;2022-12-31T18:10:18;18.00;1.00
21193;DHT22;10754;51.106;7.164;2022-12-31T18:12:46;18.00;1.00
21193;DHT22;10754;51.106;7.164;2022-12-31T18:15:17;17.90;1.00
21193;DHT22;10754;51.106;7.164;2022-12-31T18:17:43;18.20;1.00
21193;DHT22;10754;51.106;7.164;2022-12-31T18:20:09;18.10;1.00
21193;DHT22;10754;51.106;7.164;2022-12-31T18:22:36;17.80;1.00
21193;DHT22;10754;51.106;7.164;2022-12-31T18:25:02;17.70;1.00
21193;DHT22;10754;51.106;7.164;2022-12-31T18:27:28;17.80;1.00
21193;DHT22;10754;51.106;7.164;2022-12-31T18:29:55;17.90;1.00
21193;DHT22;10754;51.106;7.164;2022-12-31T18:32:26;17.70;1.00
21193;DHT22;10754;51.106;7.164;2022-12-31T18:34:52;17.80;1.00
21193;DHT22;10754;51.106;7.164;2022-12-31T18:37:18;17.90;1.00
21193;DHT22;10754;51.106;7.164;2022-12-31T18:39:44;17.90;1.00
21193;DHT22;10754;51.106;7.164;2022-12-31T18:42:11;17.90;1.00
21193;DHT22;10754;51.106;7.164;2022-12-31T18:44:38;18.00;1.00
21193;DHT22;10754;51.106;7.164;2022-12-31T18:47:10;18.00;1.00
21193;DHT22;10754;51.106;7.164;2022-12-31T18:49:36;17.80;1.00
21193;DHT22;10754;51.106;7.164;2022-12-31T18:52:01;17.90;1.00
21193;DHT22;10754;51.106;7.164;2022-12-31T18:54:27;17.90;1.00
21193;DHT22;10754;51.106;7.164;2022-12-31T18:56:52;17.90;1.00
21193;DHT22;10754;51.106;7.164;2022-12-31T18:59:18;18.10;1.00
21193;DHT22;10754;51.106;7.164;2022-12-31T19:01:43;18.20;1.00
21193;DHT22;10754;51.106;7.164;2022-12-31T19:04:17;18.00;1.00
21193;DHT22;10754;51.106;7.164;2022-12-31T19:06:46;18.20;1.00
21193;DHT22;10754;51.106;7.164;2022-12-31T19:09:12;18.20;1.00
21193;DHT22;10754;51.106;7.164;2022-12-31T19:11:39;18.10;1.00
21193;DHT22;10754;51.106;7.164;2022-12-31T19:14:14;18.20;99.90
21193;DHT22;10754;51.106;7.164;2022-12-31T19:16:39;18.10;99.90
21193;DHT22;10754;51.106;7.164;2022-12-31T19:19:05;18.00;1.00
21193;DHT22;10754;51.106;7.164;2022-12-31T19:21:30;17.90;1.40
21193;DHT22;10754;51.106;7.164;2022-12-31T19:23:56;17.90;1.00
21193;DHT22;10754;51.106;7.164;2022-12-31T19:26:21;17.80;1.40
21193;DHT22;10754;51.106;7.164;2022-12-31T19:28:49;17.80;1.00
21193;DHT22;10754;51.106;7.164;2022-12-31T19:31:14;17.90;1.40
21193;DHT22;10754;51.106;7.164;2022-12-31T19:33:41;17.60;1.00
21193;DHT22;10754;51.106;7.164;2022-12-31T19:36:14;17.60;1.00
21193;DHT22;10754;51.106;7.164;2022-12-31T19:38:40;17.80;99.90
21193;DHT22;10754;51.106;7.164;2022-12-31T19:41:13;18.00;99.90
21193;DHT22;10754;51.106;7.164;2022-12-31T19:43:39;17.80;1.00
21193;DHT22;10754;51.106;7.164;2022-12-31T19:46:04;17.80;99.90
21193;DHT22;10754;51.106;7.164;2022-12-31T19:48:30;17.90;99.90
21193;DHT22;10754;51.106;7.164;2022-12-31T19:50:55;17.70;99.90
21193;DHT22;10754;51.106;7.164;2022-12-31T19:53:23;17.90;99.90
21193;DHT22;10754;51.106;7.164;2022-12-31T19:55:50;17.90;99.90